Huntsville International Carl T Jones Field Huntsville US
ICAO: KHSV
IATA: HSV
Category: Large
Scheduled Services: Yes

Elevation: 629 ft
TransAlt. 18000 ft.

Airport Communications:
APP:118.05
ATIS:121.25
CLNC DEL:120.35
CTAF:127.6
DEP:118.05
GND:121.9
ANNISTON RDO:122.2
TWR:127.6
UNICOM:122.95

KHSV Zoom In..

Runways:

(A) RW 18L length 10006 ft width 150 ft
ILS 111.90 / hdg 182

(B) RW 18R length 12600 ft width 150 ft
ILS 109.30 / hdg 182

(C) RW 36L length 12600 ft width 150 ft
ILS 108.50 / hdg 2

(D) RW 36R length 10006 ft width 150 ft
ILS 109.55 / hdg 2

Location; KHSV
Day. 14 / Time. 13.53 Zulu
* Altimeter: 30.07
* Temperature: 24° c. 75.2°f.
* Wind from: VRB° Speed 03 kn.
Dewpoint: 21° c.
Visibility: 10 Statute Miles.
Clouds: Few 8000 ft.
Clouds: Scattered 1000 ft.

KHSV 141353Z VRB03KT 10SM FEW080 SCT100 24/21 A3007 RMK AO2 SLP174 T02440206


Wind From VRB°
Speed 03 kn.

 
 
jpsmedia.com for Web Design worldairports.se 2018   terms of use